sensor_id;sensor_type;location;lat;lon;timestamp;temperature;humidity
40434;DHT22;26146;51.114;5.654;2022-07-29T00:01:30;19.30;95.10
40434;DHT22;26146;51.114;5.654;2022-07-29T00:05:31;19.20;95.80
40434;DHT22;26146;51.114;5.654;2022-07-29T00:09:32;19.00;96.10
40434;DHT22;26146;51.114;5.654;2022-07-29T00:13:33;18.70;95.30
40434;DHT22;26146;51.114;5.654;2022-07-29T00:17:34;18.80;95.50
40434;DHT22;26146;51.114;5.654;2022-07-29T00:21:35;19.00;92.80
40434;DHT22;26146;51.114;5.654;2022-07-29T00:25:36;19.30;92.10
40434;DHT22;26146;51.114;5.654;2022-07-29T00:29:37;18.80;97.50
40434;DHT22;26146;51.114;5.654;2022-07-29T00:33:38;18.00;99.90
40434;DHT22;26146;51.114;5.654;2022-07-29T00:37:38;17.40;99.90
40434;DHT22;26146;51.114;5.654;2022-07-29T00:41:39;16.90;99.90
40434;DHT22;26146;51.114;5.654;2022-07-29T00:45:41;16.50;99.90
40434;DHT22;26146;51.114;5.654;2022-07-29T00:49:42;16.30;99.90
40434;DHT22;26146;51.114;5.654;2022-07-29T00:53:44;16.30;99.90
40434;DHT22;26146;51.114;5.654;2022-07-29T00:57:46;16.50;99.90
40434;DHT22;26146;51.114;5.654;2022-07-29T01:01:46;16.50;99.90
40434;DHT22;26146;51.114;5.654;2022-07-29T01:05:47;16.50;99.90
40434;DHT22;26146;51.114;5.654;2022-07-29T01:09:51;16.70;99.90
40434;DHT22;26146;51.114;5.654;2022-07-29T01:13:53;16.70;99.90
40434;DHT22;26146;51.114;5.654;2022-07-29T01:26:52;16.60;99.90
40434;DHT22;26146;51.114;5.654;2022-07-29T01:30:55;16.70;99.90
40434;DHT22;26146;51.114;5.654;2022-07-29T01:35:18;16.80;99.90
40434;DHT22;26146;51.114;5.654;2022-07-29T01:39:27;16.90;99.90
40434;DHT22;26146;51.114;5.654;2022-07-29T01:48:02;16.70;99.90
40434;DHT22;26146;51.114;5.654;2022-07-29T01:52:10;16.80;99.90
40434;DHT22;26146;51.114;5.654;2022-07-29T01:56:13;16.80;99.90
40434;DHT22;26146;51.114;5.654;2022-07-29T02:00:15;16.80;99.90
40434;DHT22;26146;51.114;5.654;2022-07-29T02:04:18;16.90;99.90
40434;DHT22;26146;51.114;5.654;2022-07-29T02:08:21;17.00;99.90
40434;DHT22;26146;51.114;5.654;2022-07-29T02:12:24;16.90;99.90
40434;DHT22;26146;51.114;5.654;2022-07-29T02:16:27;16.80;99.90
40434;DHT22;26146;51.114;5.654;2022-07-29T02:20:30;16.70;99.90
40434;DHT22;26146;51.114;5.654;2022-07-29T02:24:31;16.70;99.90
40434;DHT22;26146;51.114;5.654;2022-07-29T02:28:33;16.70;99.90
40434;DHT22;26146;51.114;5.654;2022-07-29T02:32:35;16.70;99.90
40434;DHT22;26146;51.114;5.654;2022-07-29T02:36:37;16.70;99.90
40434;DHT22;26146;51.114;5.654;2022-07-29T02:40:42;16.60;99.90
40434;DHT22;26146;51.114;5.654;2022-07-29T02:44:44;16.70;99.90
40434;DHT22;26146;51.114;5.654;2022-07-29T02:53:22;16.70;99.90
40434;DHT22;26146;51.114;5.654;2022-07-29T02:57:33;16.70;99.90
40434;DHT22;26146;51.114;5.654;2022-07-29T03:01:39;16.80;99.90
40434;DHT22;26146;51.114;5.654;2022-07-29T03:05:43;16.90;99.90
40434;DHT22;26146;51.114;5.654;2022-07-29T03:09:45;16.80;99.90
40434;DHT22;26146;51.114;5.654;2022-07-29T03:13:49;16.70;99.90
40434;DHT22;26146;51.114;5.654;2022-07-29T03:17:51;16.80;99.90
40434;DHT22;26146;51.114;5.654;2022-07-29T03:21:56;16.70;99.90
40434;DHT22;26146;51.114;5.654;2022-07-29T03:25:57;16.80;99.90
40434;DHT22;26146;51.114;5.654;2022-07-29T03:29:58;16.80;99.90
40434;DHT22;26146;51.114;5.654;2022-07-29T03:34:01;16.90;99.90
40434;DHT22;26146;51.114;5.654;2022-07-29T03:38:02;16.80;99.90
40434;DHT22;26146;51.114;5.654;2022-07-29T03:42:05;16.80;99.90
40434;DHT22;26146;51.114;5.654;2022-07-29T03:46:09;16.90;99.90
40434;DHT22;26146;51.114;5.654;2022-07-29T03:50:11;16.80;99.90
40434;DHT22;26146;51.114;5.654;2022-07-29T03:54:15;17.00;99.90
40434;DHT22;26146;51.114;5.654;2022-07-29T03:58:16;17.10;99.90
40434;DHT22;26146;51.114;5.654;2022-07-29T04:02:19;17.30;99.90
40434;DHT22;26146;51.114;5.654;2022-07-29T04:06:20;17.60;99.90
40434;DHT22;26146;51.114;5.654;2022-07-29T04:10:21;17.60;99.90
40434;DHT22;26146;51.114;5.654;2022-07-29T04:14:23;17.50;99.90
40434;DHT22;26146;51.114;5.654;2022-07-29T04:18:25;17.30;99.90
40434;DHT22;26146;51.114;5.654;2022-07-29T04:22:26;17.30;99.90
40434;DHT22;26146;51.114;5.654;2022-07-29T04:26:26;16.70;99.90
40434;DHT22;26146;51.114;5.654;2022-07-29T04:30:28;16.50;99.90
40434;DHT22;26146;51.114;5.654;2022-07-29T04:34:29;16.50;99.90
40434;DHT22;26146;51.114;5.654;2022-07-29T04:38:30;16.20;99.90
40434;DHT22;26146;51.114;5.654;2022-07-29T04:42:31;16.10;99.90
40434;DHT22;26146;51.114;5.654;2022-07-29T04:46:32;16.00;99.90
40434;DHT22;26146;51.114;5.654;2022-07-29T04:50:33;16.20;99.90
40434;DHT22;26146;51.114;5.654;2022-07-29T04:54:34;16.20;99.90
40434;DHT22;26146;51.114;5.654;2022-07-29T04:58:35;16.20;99.90
40434;DHT22;26146;51.114;5.654;2022-07-29T05:02:36;16.10;99.90
40434;DHT22;26146;51.114;5.654;2022-07-29T05:06:37;16.20;99.90
40434;DHT22;26146;51.114;5.654;2022-07-29T05:10:40;16.20;99.90
40434;DHT22;26146;51.114;5.654;2022-07-29T05:14:41;16.30;99.90
40434;DHT22;26146;51.114;5.654;2022-07-29T05:18:42;16.50;99.90
40434;DHT22;26146;51.114;5.654;2022-07-29T05:22:43;16.60;99.90
40434;DHT22;26146;51.114;5.654;2022-07-29T05:26:44;16.60;99.90
40434;DHT22;26146;51.114;5.654;2022-07-29T05:30:45;16.60;99.90
40434;DHT22;26146;51.114;5.654;2022-07-29T05:34:46;16.70;99.90
40434;DHT22;26146;51.114;5.654;2022-07-29T05:38:46;17.00;99.90
40434;DHT22;26146;51.114;5.654;2022-07-29T05:42:48;17.00;99.90
40434;DHT22;26146;51.114;5.654;2022-07-29T05:46:48;16.90;99.90
40434;DHT22;26146;51.114;5.654;2022-07-29T05:50:49;17.00;99.90
40434;DHT22;26146;51.114;5.654;2022-07-29T05:54:50;17.20;99.90
40434;DHT22;26146;51.114;5.654;2022-07-29T05:58:52;17.00;99.90
40434;DHT22;26146;51.114;5.654;2022-07-29T06:02:53;17.00;99.90
40434;DHT22;26146;51.114;5.654;2022-07-29T06:06:54;17.10;99.90
40434;DHT22;26146;51.114;5.654;2022-07-29T06:10:55;17.30;99.90
40434;DHT22;26146;51.114;5.654;2022-07-29T06:14:56;17.60;99.90
40434;DHT22;26146;51.114;5.654;2022-07-29T06:18:57;17.60;99.90
40434;DHT22;26146;51.114;5.654;2022-07-29T06:22:59;18.00;99.90
40434;DHT22;26146;51.114;5.654;2022-07-29T06:27:00;18.20;99.90
40434;DHT22;26146;51.114;5.654;2022-07-29T06:31:01;18.30;99.90
40434;DHT22;26146;51.114;5.654;2022-07-29T06:35:02;18.30;99.90
40434;DHT22;26146;51.114;5.654;2022-07-29T06:39:07;18.30;99.90
40434;DHT22;26146;51.114;5.654;2022-07-29T06:43:08;18.30;99.90
40434;DHT22;26146;51.114;5.654;2022-07-29T06:47:09;18.50;99.90
40434;DHT22;26146;51.114;5.654;2022-07-29T06:51:11;18.80;99.90
40434;DHT22;26146;51.114;5.654;2022-07-29T06:55:12;19.10;99.90
40434;DHT22;26146;51.114;5.654;2022-07-29T06:59:13;19.20;99.90
40434;DHT22;26146;51.114;5.654;2022-07-29T07:03:15;19.20;99.90
40434;DHT22;26146;51.114;5.654;2022-07-29T07:07:16;19.20;99.90
40434;DHT22;26146;51.114;5.654;2022-07-29T07:11:17;19.20;99.90
40434;DHT22;26146;51.114;5.654;2022-07-29T07:15:18;19.20;99.90
40434;DHT22;26146;51.114;5.654;2022-07-29T07:19:22;19.10;99.90
40434;DHT22;26146;51.114;5.654;2022-07-29T07:23:23;19.30;99.90
40434;DHT22;26146;51.114;5.654;2022-07-29T07:27:27;19.70;99.90
40434;DHT22;26146;51.114;5.654;2022-07-29T07:31:28;19.70;99.90
40434;DHT22;26146;51.114;5.654;2022-07-29T07:35:29;19.70;99.90
40434;DHT22;26146;51.114;5.654;2022-07-29T07:39:30;19.70;99.90
40434;DHT22;26146;51.114;5.654;2022-07-29T07:43:31;19.70;99.90
40434;DHT22;26146;51.114;5.654;2022-07-29T07:47:32;19.60;99.90
40434;DHT22;26146;51.114;5.654;2022-07-29T07:51:35;19.60;99.90
40434;DHT22;26146;51.114;5.654;2022-07-29T07:55:41;19.50;99.90
40434;DHT22;26146;51.114;5.654;2022-07-29T07:59:44;19.60;99.90
40434;DHT22;26146;51.114;5.654;2022-07-29T08:03:45;19.50;99.90
40434;DHT22;26146;51.114;5.654;2022-07-29T08:07:47;19.40;99.90
40434;DHT22;26146;51.114;5.654;2022-07-29T08:11:47;19.60;99.90
40434;DHT22;26146;51.114;5.654;2022-07-29T08:15:49;19.50;99.90
40434;DHT22;26146;51.114;5.654;2022-07-29T08:20:00;19.40;99.90
40434;DHT22;26146;51.114;5.654;2022-07-29T08:24:01;19.50;99.90
40434;DHT22;26146;51.114;5.654;2022-07-29T08:28:21;19.60;99.90
40434;DHT22;26146;51.114;5.654;2022-07-29T08:32:24;19.90;99.90
40434;DHT22;26146;51.114;5.654;2022-07-29T08:36:26;20.10;99.90
40434;DHT22;26146;51.114;5.654;2022-07-29T08:40:27;20.40;99.90
40434;DHT22;26146;51.114;5.654;2022-07-29T08:44:32;20.70;99.90
40434;DHT22;26146;51.114;5.654;2022-07-29T08:48:33;21.00;99.90
40434;DHT22;26146;51.114;5.654;2022-07-29T08:52:39;21.20;99.90
40434;DHT22;26146;51.114;5.654;2022-07-29T08:56:43;21.40;99.70
40434;DHT22;26146;51.114;5.654;2022-07-29T09:00:50;21.40;99.10
40434;DHT22;26146;51.114;5.654;2022-07-29T09:04:51;21.50;99.10
40434;DHT22;26146;51.114;5.654;2022-07-29T09:08:57;21.40;99.50
40434;DHT22;26146;51.114;5.654;2022-07-29T09:12:59;21.20;99.20
40434;DHT22;26146;51.114;5.654;2022-07-29T09:17:00;21.30;99.10
40434;DHT22;26146;51.114;5.654;2022-07-29T09:21:02;21.40;98.60
40434;DHT22;26146;51.114;5.654;2022-07-29T09:25:36;21.50;98.60
40434;DHT22;26146;51.114;5.654;2022-07-29T09:29:37;21.70;97.50
40434;DHT22;26146;51.114;5.654;2022-07-29T09:33:39;21.90;97.40
40434;DHT22;26146;51.114;5.654;2022-07-29T09:37:44;21.90;97.00
40434;DHT22;26146;51.114;5.654;2022-07-29T09:41:53;21.90;97.50
40434;DHT22;26146;51.114;5.654;2022-07-29T09:45:54;22.10;97.10
40434;DHT22;26146;51.114;5.654;2022-07-29T09:49:57;22.50;96.20
40434;DHT22;26146;51.114;5.654;2022-07-29T09:53:59;22.40;95.70
40434;DHT22;26146;51.114;5.654;2022-07-29T09:58:18;22.30;95.30
40434;DHT22;26146;51.114;5.654;2022-07-29T10:02:21;22.50;95.20
40434;DHT22;26146;51.114;5.654;2022-07-29T10:06:22;22.60;95.30
40434;DHT22;26146;51.114;5.654;2022-07-29T10:10:28;22.70;94.90
40434;DHT22;26146;51.114;5.654;2022-07-29T10:14:31;23.00;94.60
40434;DHT22;26146;51.114;5.654;2022-07-29T10:18:44;23.20;94.60
40434;DHT22;26146;51.114;5.654;2022-07-29T10:22:48;23.20;93.80
40434;DHT22;26146;51.114;5.654;2022-07-29T10:26:50;23.20;94.60
40434;DHT22;26146;51.114;5.654;2022-07-29T10:31:07;23.40;93.50
40434;DHT22;26146;51.114;5.654;2022-07-29T10:39:50;23.70;93.40
40434;DHT22;26146;51.114;5.654;2022-07-29T10:44:03;23.80;93.60
40434;DHT22;26146;51.114;5.654;2022-07-29T10:48:05;23.90;93.70
40434;DHT22;26146;51.114;5.654;2022-07-29T10:52:08;24.00;93.30
40434;DHT22;26146;51.114;5.654;2022-07-29T10:56:29;24.00;93.70
40434;DHT22;26146;51.114;5.654;2022-07-29T11:00:34;24.20;92.60
40434;DHT22;26146;51.114;5.654;2022-07-29T11:08:47;24.40;92.00
40434;DHT22;26146;51.114;5.654;2022-07-29T11:13:06;24.40;91.50
40434;DHT22;26146;51.114;5.654;2022-07-29T11:17:07;24.60;91.90
40434;DHT22;26146;51.114;5.654;2022-07-29T11:21:37;24.80;90.50
40434;DHT22;26146;51.114;5.654;2022-07-29T11:25:38;24.70;91.00
40434;DHT22;26146;51.114;5.654;2022-07-29T11:29:50;24.70;91.20
40434;DHT22;26146;51.114;5.654;2022-07-29T11:33:52;24.90;90.30
40434;DHT22;26146;51.114;5.654;2022-07-29T11:38:25;24.90;91.20
40434;DHT22;26146;51.114;5.654;2022-07-29T11:46:47;25.30;90.40
40434;DHT22;26146;51.114;5.654;2022-07-29T11:50:52;25.30;88.20
40434;DHT22;26146;51.114;5.654;2022-07-29T11:54:57;25.30;89.60
40434;DHT22;26146;51.114;5.654;2022-07-29T11:59:06;25.40;89.90
40434;DHT22;26146;51.114;5.654;2022-07-29T12:03:10;25.50;88.00
40434;DHT22;26146;51.114;5.654;2022-07-29T12:07:15;25.40;89.10
40434;DHT22;26146;51.114;5.654;2022-07-29T12:11:20;25.60;88.10
40434;DHT22;26146;51.114;5.654;2022-07-29T12:15:21;25.60;88.20
40434;DHT22;26146;51.114;5.654;2022-07-29T12:19:24;25.40;89.30
40434;DHT22;26146;51.114;5.654;2022-07-29T12:23:25;25.80;88.20
40434;DHT22;26146;51.114;5.654;2022-07-29T12:27:29;26.00;89.00
40434;DHT22;26146;51.114;5.654;2022-07-29T12:31:32;25.90;89.70
40434;DHT22;26146;51.114;5.654;2022-07-29T12:35:35;26.00;88.70
40434;DHT22;26146;51.114;5.654;2022-07-29T12:39:36;26.10;87.30
40434;DHT22;26146;51.114;5.654;2022-07-29T12:43:37;26.30;86.80
40434;DHT22;26146;51.114;5.654;2022-07-29T12:47:58;26.10;87.90
40434;DHT22;26146;51.114;5.654;2022-07-29T12:51:59;26.30;87.80
40434;DHT22;26146;51.114;5.654;2022-07-29T12:56:00;26.10;88.70
40434;DHT22;26146;51.114;5.654;2022-07-29T13:00:10;26.00;87.80
40434;DHT22;26146;51.114;5.654;2022-07-29T13:04:13;25.90;87.90
40434;DHT22;26146;51.114;5.654;2022-07-29T13:08:24;25.70;87.20
40434;DHT22;26146;51.114;5.654;2022-07-29T13:12:25;25.90;86.30
40434;DHT22;26146;51.114;5.654;2022-07-29T13:16:27;25.90;83.80
40434;DHT22;26146;51.114;5.654;2022-07-29T13:20:29;26.00;84.80
40434;DHT22;26146;51.114;5.654;2022-07-29T13:24:30;26.10;85.00
40434;DHT22;26146;51.114;5.654;2022-07-29T13:28:31;26.30;86.40
40434;DHT22;26146;51.114;5.654;2022-07-29T13:32:35;26.70;85.00
40434;DHT22;26146;51.114;5.654;2022-07-29T13:36:39;26.90;82.70
40434;DHT22;26146;51.114;5.654;2022-07-29T13:40:41;27.00;81.70
40434;DHT22;26146;51.114;5.654;2022-07-29T13:44:43;26.90;81.50
40434;DHT22;26146;51.114;5.654;2022-07-29T13:48:44;27.00;81.00
40434;DHT22;26146;51.114;5.654;2022-07-29T13:52:48;26.70;80.50
40434;DHT22;26146;51.114;5.654;2022-07-29T13:56:51;27.00;80.00
40434;DHT22;26146;51.114;5.654;2022-07-29T14:00:56;27.30;78.30
40434;DHT22;26146;51.114;5.654;2022-07-29T14:04:57;27.90;77.70
40434;DHT22;26146;51.114;5.654;2022-07-29T14:08:58;28.30;76.30
40434;DHT22;26146;51.114;5.654;2022-07-29T14:12:59;27.60;77.60
40434;DHT22;26146;51.114;5.654;2022-07-29T14:17:03;27.50;77.90
40434;DHT22;26146;51.114;5.654;2022-07-29T14:21:04;27.40;78.40
40434;DHT22;26146;51.114;5.654;2022-07-29T14:25:08;27.50;77.00
40434;DHT22;26146;51.114;5.654;2022-07-29T14:29:09;27.80;76.20
40434;DHT22;26146;51.114;5.654;2022-07-29T14:33:10;27.90;75.70
40434;DHT22;26146;51.114;5.654;2022-07-29T14:37:11;28.20;75.20
40434;DHT22;26146;51.114;5.654;2022-07-29T14:41:12;28.10;73.30
40434;DHT22;26146;51.114;5.654;2022-07-29T14:45:15;28.10;74.50
40434;DHT22;26146;51.114;5.654;2022-07-29T14:49:16;28.40;73.80
40434;DHT22;26146;51.114;5.654;2022-07-29T14:53:17;28.30;73.90
40434;DHT22;26146;51.114;5.654;2022-07-29T14:57:18;27.90;73.80
40434;DHT22;26146;51.114;5.654;2022-07-29T15:01:23;27.40;73.00
40434;DHT22;26146;51.114;5.654;2022-07-29T15:05:25;27.40;74.80
40434;DHT22;26146;51.114;5.654;2022-07-29T15:09:26;27.70;73.00
40434;DHT22;26146;51.114;5.654;2022-07-29T15:13:29;27.70;73.30
40434;DHT22;26146;51.114;5.654;2022-07-29T15:17:30;27.80;73.00
40434;DHT22;26146;51.114;5.654;2022-07-29T15:21:31;27.90;72.80
40434;DHT22;26146;51.114;5.654;2022-07-29T15:25:32;27.60;73.00
40434;DHT22;26146;51.114;5.654;2022-07-29T15:29:36;27.40;73.60
40434;DHT22;26146;51.114;5.654;2022-07-29T15:33:38;27.10;73.10
40434;DHT22;26146;51.114;5.654;2022-07-29T15:37:42;27.00;74.10
40434;DHT22;26146;51.114;5.654;2022-07-29T15:41:43;27.10;74.10
40434;DHT22;26146;51.114;5.654;2022-07-29T15:45:46;27.30;73.70
40434;DHT22;26146;51.114;5.654;2022-07-29T15:50:08;27.20;73.00
40434;DHT22;26146;51.114;5.654;2022-07-29T15:54:14;27.30;73.10
40434;DHT22;26146;51.114;5.654;2022-07-29T15:58:17;27.30;71.90
40434;DHT22;26146;51.114;5.654;2022-07-29T16:02:18;27.30;72.50
40434;DHT22;26146;51.114;5.654;2022-07-29T16:06:19;27.30;72.40
40434;DHT22;26146;51.114;5.654;2022-07-29T16:10:20;27.10;73.40
40434;DHT22;26146;51.114;5.654;2022-07-29T16:14:21;27.00;73.20
40434;DHT22;26146;51.114;5.654;2022-07-29T16:18:22;27.10;74.00
40434;DHT22;26146;51.114;5.654;2022-07-29T16:22:23;26.90;73.40
40434;DHT22;26146;51.114;5.654;2022-07-29T16:26:24;26.70;73.90
40434;DHT22;26146;51.114;5.654;2022-07-29T16:30:25;26.60;74.00
40434;DHT22;26146;51.114;5.654;2022-07-29T16:34:26;26.60;75.00
40434;DHT22;26146;51.114;5.654;2022-07-29T16:38:26;26.20;74.10
40434;DHT22;26146;51.114;5.654;2022-07-29T16:42:27;26.20;74.60
40434;DHT22;26146;51.114;5.654;2022-07-29T16:46:29;26.40;74.30
40434;DHT22;26146;51.114;5.654;2022-07-29T16:50:30;26.50;73.40
40434;DHT22;26146;51.114;5.654;2022-07-29T16:54:34;26.50;73.30
40434;DHT22;26146;51.114;5.654;2022-07-29T16:58:35;26.50;73.50
40434;DHT22;26146;51.114;5.654;2022-07-29T17:02:36;26.30;72.90
40434;DHT22;26146;51.114;5.654;2022-07-29T17:06:39;26.10;74.60
40434;DHT22;26146;51.114;5.654;2022-07-29T17:10:40;26.10;74.30
40434;DHT22;26146;51.114;5.654;2022-07-29T17:14:41;26.40;74.00
40434;DHT22;26146;51.114;5.654;2022-07-29T17:18:42;26.40;73.10
40434;DHT22;26146;51.114;5.654;2022-07-29T17:22:43;26.20;74.00
40434;DHT22;26146;51.114;5.654;2022-07-29T17:26:44;26.30;74.50
40434;DHT22;26146;51.114;5.654;2022-07-29T17:30:45;26.30;74.50
40434;DHT22;26146;51.114;5.654;2022-07-29T17:34:46;26.30;74.60
40434;DHT22;26146;51.114;5.654;2022-07-29T17:38:47;26.30;74.70
40434;DHT22;26146;51.114;5.654;2022-07-29T17:42:48;26.40;74.30
40434;DHT22;26146;51.114;5.654;2022-07-29T17:46:49;26.40;74.00
40434;DHT22;26146;51.114;5.654;2022-07-29T17:50:50;26.50;74.10
40434;DHT22;26146;51.114;5.654;2022-07-29T17:54:51;26.40;73.70
40434;DHT22;26146;51.114;5.654;2022-07-29T17:58:52;26.30;73.00
40434;DHT22;26146;51.114;5.654;2022-07-29T18:02:54;26.20;73.10
40434;DHT22;26146;51.114;5.654;2022-07-29T18:06:55;26.10;73.40
40434;DHT22;26146;51.114;5.654;2022-07-29T18:10:55;26.00;73.90
40434;DHT22;26146;51.114;5.654;2022-07-29T18:14:56;25.80;74.60
40434;DHT22;26146;51.114;5.654;2022-07-29T18:18:57;25.60;74.20
40434;DHT22;26146;51.114;5.654;2022-07-29T18:22:58;25.40;75.10
40434;DHT22;26146;51.114;5.654;2022-07-29T18:26:59;25.30;75.20
40434;DHT22;26146;51.114;5.654;2022-07-29T18:31:00;25.00;76.40
40434;DHT22;26146;51.114;5.654;2022-07-29T18:35:02;25.00;76.10
40434;DHT22;26146;51.114;5.654;2022-07-29T18:39:04;24.90;76.40
40434;DHT22;26146;51.114;5.654;2022-07-29T18:43:06;24.90;77.00
40434;DHT22;26146;51.114;5.654;2022-07-29T18:47:09;24.80;77.60
40434;DHT22;26146;51.114;5.654;2022-07-29T18:51:10;24.70;77.90
40434;DHT22;26146;51.114;5.654;2022-07-29T18:55:34;24.60;78.50
40434;DHT22;26146;51.114;5.654;2022-07-29T18:59:36;24.50;78.60
40434;DHT22;26146;51.114;5.654;2022-07-29T19:03:39;24.50;79.00
40434;DHT22;26146;51.114;5.654;2022-07-29T19:07:40;24.30;79.40
40434;DHT22;26146;51.114;5.654;2022-07-29T19:11:41;24.20;80.10
40434;DHT22;26146;51.114;5.654;2022-07-29T19:15:44;24.10;80.60
40434;DHT22;26146;51.114;5.654;2022-07-29T19:19:45;24.00;80.70
40434;DHT22;26146;51.114;5.654;2022-07-29T19:23:47;23.90;81.20
40434;DHT22;26146;51.114;5.654;2022-07-29T19:27:48;23.80;81.40
40434;DHT22;26146;51.114;5.654;2022-07-29T19:31:52;23.80;81.80
40434;DHT22;26146;51.114;5.654;2022-07-29T19:35:53;23.70;82.40
40434;DHT22;26146;51.114;5.654;2022-07-29T19:39:54;23.50;83.60
40434;DHT22;26146;51.114;5.654;2022-07-29T19:43:54;23.30;84.20
40434;DHT22;26146;51.114;5.654;2022-07-29T19:47:56;23.20;84.50
40434;DHT22;26146;51.114;5.654;2022-07-29T19:51:57;22.90;84.80
40434;DHT22;26146;51.114;5.654;2022-07-29T19:56:01;22.90;85.30
40434;DHT22;26146;51.114;5.654;2022-07-29T20:00:03;22.90;86.30
40434;DHT22;26146;51.114;5.654;2022-07-29T20:04:04;22.80;86.50
40434;DHT22;26146;51.114;5.654;2022-07-29T20:08:08;22.80;86.80
40434;DHT22;26146;51.114;5.654;2022-07-29T20:12:09;22.60;87.30
40434;DHT22;26146;51.114;5.654;2022-07-29T20:16:10;22.50;88.00
40434;DHT22;26146;51.114;5.654;2022-07-29T20:20:11;22.40;88.30
40434;DHT22;26146;51.114;5.654;2022-07-29T20:24:12;22.20;88.80
40434;DHT22;26146;51.114;5.654;2022-07-29T20:28:13;22.10;89.50
40434;DHT22;26146;51.114;5.654;2022-07-29T20:32:15;21.90;89.90
40434;DHT22;26146;51.114;5.654;2022-07-29T20:36:16;21.90;90.10
40434;DHT22;26146;51.114;5.654;2022-07-29T20:40:17;21.80;90.20
40434;DHT22;26146;51.114;5.654;2022-07-29T20:44:18;21.80;90.20
40434;DHT22;26146;51.114;5.654;2022-07-29T20:48:19;21.80;90.20
40434;DHT22;26146;51.114;5.654;2022-07-29T20:52:20;21.60;90.40
40434;DHT22;26146;51.114;5.654;2022-07-29T20:56:22;21.50;90.50
40434;DHT22;26146;51.114;5.654;2022-07-29T21:00:23;21.50;90.50
40434;DHT22;26146;51.114;5.654;2022-07-29T21:04:24;21.50;90.50
40434;DHT22;26146;51.114;5.654;2022-07-29T21:08:29;21.40;90.60
40434;DHT22;26146;51.114;5.654;2022-07-29T21:12:30;21.30;90.90
40434;DHT22;26146;51.114;5.654;2022-07-29T21:16:31;21.20;90.90
40434;DHT22;26146;51.114;5.654;2022-07-29T21:20:33;21.10;91.10
40434;DHT22;26146;51.114;5.654;2022-07-29T21:24:34;21.00;91.30
40434;DHT22;26146;51.114;5.654;2022-07-29T21:28:35;21.00;91.50
40434;DHT22;26146;51.114;5.654;2022-07-29T21:32:39;21.00;91.70
40434;DHT22;26146;51.114;5.654;2022-07-29T21:36:40;20.90;91.60
40434;DHT22;26146;51.114;5.654;2022-07-29T21:40:43;20.80;91.70
40434;DHT22;26146;51.114;5.654;2022-07-29T21:44:46;20.90;91.80
40434;DHT22;26146;51.114;5.654;2022-07-29T21:48:47;20.80;91.90
40434;DHT22;26146;51.114;5.654;2022-07-29T21:52:48;20.70;92.20
40434;DHT22;26146;51.114;5.654;2022-07-29T21:56:49;20.50;92.40
40434;DHT22;26146;51.114;5.654;2022-07-29T22:00:50;20.50;92.50
40434;DHT22;26146;51.114;5.654;2022-07-29T22:04:51;20.40;92.60
40434;DHT22;26146;51.114;5.654;2022-07-29T22:08:54;20.30;92.90
40434;DHT22;26146;51.114;5.654;2022-07-29T22:12:57;20.20;92.90
40434;DHT22;26146;51.114;5.654;2022-07-29T22:16:58;20.10;93.00
40434;DHT22;26146;51.114;5.654;2022-07-29T22:21:01;20.10;93.20
40434;DHT22;26146;51.114;5.654;2022-07-29T22:25:03;20.00;93.30
40434;DHT22;26146;51.114;5.654;2022-07-29T22:29:09;20.00;93.10
40434;DHT22;26146;51.114;5.654;2022-07-29T22:33:11;20.00;93.00
40434;DHT22;26146;51.114;5.654;2022-07-29T22:37:12;20.00;93.10
40434;DHT22;26146;51.114;5.654;2022-07-29T22:41:13;20.00;93.20
40434;DHT22;26146;51.114;5.654;2022-07-29T22:45:14;20.00;93.10
40434;DHT22;26146;51.114;5.654;2022-07-29T22:49:15;20.00;93.30
40434;DHT22;26146;51.114;5.654;2022-07-29T22:53:16;19.90;93.50
40434;DHT22;26146;51.114;5.654;2022-07-29T22:57:17;19.90;93.50
40434;DHT22;26146;51.114;5.654;2022-07-29T23:01:18;19.90;93.40
40434;DHT22;26146;51.114;5.654;2022-07-29T23:05:19;19.90;93.50
40434;DHT22;26146;51.114;5.654;2022-07-29T23:09:20;19.80;93.60
40434;DHT22;26146;51.114;5.654;2022-07-29T23:13:21;19.80;93.80
40434;DHT22;26146;51.114;5.654;2022-07-29T23:17:22;19.80;93.70
40434;DHT22;26146;51.114;5.654;2022-07-29T23:21:23;19.80;93.80
40434;DHT22;26146;51.114;5.654;2022-07-29T23:25:24;19.70;93.90
40434;DHT22;26146;51.114;5.654;2022-07-29T23:29:25;19.70;94.10
40434;DHT22;26146;51.114;5.654;2022-07-29T23:33:26;19.60;94.20
40434;DHT22;26146;51.114;5.654;2022-07-29T23:37:27;19.60;94.40
40434;DHT22;26146;51.114;5.654;2022-07-29T23:41:29;19.50;94.60
40434;DHT22;26146;51.114;5.654;2022-07-29T23:45:30;19.40;94.80
40434;DHT22;26146;51.114;5.654;2022-07-29T23:49:31;19.30;95.00
40434;DHT22;26146;51.114;5.654;2022-07-29T23:53:38;19.30;95.30
40434;DHT22;26146;51.114;5.654;2022-07-29T23:57:39;19.30;95.60
